This is the latest recevied weather packets stored in our database for station/object AB2HM. If no packets are shown the sender has not sent any weather packets the latest 10 day(s).
| Time | Temp. | Humidity | Pressure | Rain* | Wind** | Luminosity | Snow |
|---|---|---|---|---|---|---|---|
| 1788627969 | 27.78° C | 47% | 1012.7 hPa | 0 mm | - | - | - |
| 1788626144 | 28.33° C | 47% | 1012.9 hPa | 0 mm | - | - | - |
| 1788624330 | 27.22° C | 49% | 1013.1 hPa | 0 mm | - | - | - |
| 1788622523 | 27.22° C | 54% | 1013.1 hPa | 0 mm | - | - | - |
| 1788620716 | 26.67° C | 56% | 1013.3 hPa | 0 mm | - | - | - |
| 1788618909 | 25.56° C | 60% | 1013.2 hPa | 0 mm | - | - | - |
| 1788617102 | 25° C | 64% | 1013.1 hPa | 0 mm | - | - | - |
| 1788615292 | 23.89° C | 71% | 1012.9 hPa | 0 mm | - | - | - |
| 1788613471 | 23.33° C | 76% | 1012.9 hPa | 0 mm | - | - | - |
| 1788611662 | 22.78° C | 74% | 1013.1 hPa | 0 mm | - | - | - |
| 1788609847 | 22.78° C | 77% | 1013.2 hPa | 0 mm | - | - | - |
| 1788608033 | 21.67° C | 83% | 1012.8 hPa | 0 mm | - | - | - |
| 1788606226 | 21.11° C | 88% | 1012.6 hPa | 0 mm | - | - | - |
| 1788604421 | 21.11° C | 90% | 1012.2 hPa | 0 mm | - | - | - |
| 1788602623 | 21.67° C | 91% | 1012.1 hPa | 0 mm | - | - | - |
| 1788600817 | 22.22° C | 92% | 1012 hPa | 0 mm | - | - | - |
| 1788599012 | 22.22° C | 91% | 1012.1 hPa | 0 mm | - | - | - |
| 1788597202 | 22.78° C | 92% | 1011.9 hPa | 0 mm | - | - | - |
| 1788595398 | 22.78° C | 91% | 1011.9 hPa | 0 mm | - | - | - |
| 1788593574 | 22.78° C | 91% | 1011.9 hPa | 0 mm | - | - | - |
| 1788591773 | 22.78° C | 90% | 1012 hPa | 0 mm | - | - | - |
| 1788589972 | 23.33° C | 90% | 1012.2 hPa | 0 mm | - | - | - |
| 1788588167 | 22.78° C | 89% | 1012.5 hPa | 0 mm | - | - | - |
| 1788586357 | 23.33° C | 88% | 1012.7 hPa | 0 mm | - | - | - |
| 1788584548 | 23.89° C | 86% | 1012.7 hPa | 1.27 mm | - | - | - |
* Rain latest hour (hover to see other rain measurements)
** Current wind speed in m/s (hover to see current wind gust speed)